createdAt,value
2023-03-05T00:00:36.839Z,1.20
2023-03-05T00:03:06.865Z,2.13
2023-03-05T00:05:36.538Z,1.98
2023-03-05T00:08:06.366Z,1.17
2023-03-05T00:10:36.066Z,1.05
2023-03-05T00:13:08.365Z,1.35
2023-03-05T00:15:43.743Z,1.70
2023-03-05T00:18:13.406Z,1.48
2023-03-05T00:20:43.105Z,1.50
2023-03-05T00:23:12.806Z,1.95
2023-03-05T00:25:42.464Z,1.33
2023-03-05T00:28:15.221Z,2.10
2023-03-05T00:30:44.925Z,4.43
2023-03-05T00:33:15.309Z,3.38
2023-03-05T00:35:46.272Z,7.43
2023-03-05T00:38:16.745Z,4.47
2023-03-05T00:40:46.497Z,4.60
2023-03-05T00:43:18.866Z,2.50
2023-03-05T00:45:48.562Z,3.25
2023-03-05T00:48:18.271Z,2.75
2023-03-05T00:50:48.238Z,2.13
2023-03-05T00:53:17.953Z,1.48
2023-03-05T00:55:47.666Z,1.45
2023-03-05T00:58:19.992Z,1.48
2023-03-05T01:00:50.784Z,1.90
2023-03-05T01:03:20.760Z,1.42
2023-03-05T01:05:51.474Z,1.77
2023-03-05T01:08:21.194Z,2.60
2023-03-05T01:10:51.215Z,2.05
2023-03-05T01:13:23.708Z,1.38
2023-03-05T01:15:53.439Z,3.15
2023-03-05T01:18:23.665Z,5.00
2023-03-05T01:20:53.886Z,3.85
2023-03-05T01:23:23.701Z,4.05
2023-03-05T01:25:56.198Z,4.07
2023-03-05T01:28:28.604Z,5.03
2023-03-05T01:30:58.366Z,3.83
2023-03-05T01:33:28.104Z,3.08
2023-03-05T01:35:57.826Z,2.13
2023-03-05T01:38:27.570Z,2.47
2023-03-05T01:40:57.272Z,2.03
2023-03-05T01:43:31.560Z,3.25
2023-03-05T01:46:16.973Z,5.80
2023-03-05T01:48:48.778Z,7.28
2023-03-05T01:51:18.729Z,6.43
2023-03-05T01:53:49.333Z,3.05
2023-03-05T01:56:19.866Z,5.75
2023-03-05T01:58:53.706Z,4.88
2023-03-05T02:01:23.454Z,4.70
2023-03-05T02:03:53.453Z,2.95
2023-03-05T02:06:23.191Z,4.38
2023-03-05T02:08:52.898Z,2.95
2023-03-05T02:11:23.116Z,7.22
2023-03-05T02:13:57.248Z,6.60
2023-03-05T02:16:27.003Z,3.75
2023-03-05T02:18:56.723Z,2.83
2023-03-05T02:21:40.756Z,4.28
2023-03-05T02:24:10.695Z,3.50
2023-03-05T02:26:40.374Z,3.10
2023-03-05T02:29:12.288Z,4.18
2023-03-05T02:31:41.992Z,3.20
2023-03-05T02:34:11.785Z,9.77
2023-03-05T02:36:44.080Z,10.02
2023-03-05T02:39:14.952Z,7.15
2023-03-05T02:41:45.016Z,6.75
2023-03-05T02:44:14.852Z,5.68
2023-03-05T02:46:44.655Z,4.85
2023-03-05T02:49:14.551Z,4.18
2023-03-05T02:51:46.861Z,4.05
2023-03-05T02:54:16.582Z,4.40
2023-03-05T02:56:46.370Z,3.58
2023-03-05T02:59:16.089Z,2.40
2023-03-05T03:01:45.773Z,2.80
2023-03-05T03:04:15.547Z,2.95
2023-03-05T03:06:47.808Z,3.85
2023-03-05T03:09:17.461Z,3.72
2023-03-05T03:11:47.159Z,5.13
2023-03-05T03:14:16.873Z,3.13
2023-03-05T03:16:46.612Z,2.28
2023-03-05T03:19:16.568Z,3.00
2023-03-05T03:21:50.070Z,2.63
2023-03-05T03:24:19.791Z,2.30
2023-03-05T03:26:50.096Z,2.50
2023-03-05T03:29:19.743Z,2.17
2023-03-05T03:31:49.506Z,1.92
2023-03-05T03:34:19.896Z,2.97
2023-03-05T03:36:52.975Z,4.25
2023-03-05T03:39:23.955Z,4.20
2023-03-05T03:41:54.502Z,3.55
2023-03-05T03:44:24.461Z,3.90
2023-03-05T03:46:54.990Z,4.40
2023-03-05T03:49:25.981Z,4.13
2023-03-05T03:51:58.467Z,3.03
2023-03-05T03:54:28.138Z,4.50
2023-03-05T03:56:57.828Z,4.10
2023-03-05T03:59:27.517Z,4.75
2023-03-05T04:01:57.210Z,3.38
2023-03-05T04:04:29.251Z,2.97
2023-03-05T04:07:01.696Z,3.90
2023-03-05T04:09:31.361Z,3.05
2023-03-05T04:12:01.033Z,2.30
2023-03-05T04:14:30.708Z,1.98
2023-03-05T04:17:00.408Z,2.25
2023-03-05T04:19:34.185Z,1.73
2023-03-05T04:22:06.542Z,3.65
2023-03-05T04:24:36.250Z,2.58
2023-03-05T04:27:05.974Z,3.13
2023-03-05T04:29:36.192Z,3.60
2023-03-05T04:32:06.190Z,3.95
2023-03-05T04:34:35.957Z,4.22
2023-03-05T04:37:08.293Z,4.00
2023-03-05T04:39:38.424Z,3.70
2023-03-05T04:42:08.349Z,3.80
2023-03-05T04:44:38.018Z,3.60
2023-03-05T04:47:08.394Z,3.53
2023-03-05T04:49:38.083Z,3.17
2023-03-05T04:52:10.463Z,3.30
2023-03-05T04:54:40.330Z,2.88
2023-03-05T04:57:10.438Z,2.45
2023-03-05T04:59:40.488Z,2.47
2023-03-05T05:02:10.166Z,3.35
2023-03-05T05:04:40.554Z,3.20
2023-03-05T05:07:12.977Z,2.38
2023-03-05T05:09:42.910Z,2.75
2023-03-05T05:12:13.352Z,3.00
2023-03-05T05:14:43.036Z,2.45
2023-03-05T05:17:12.715Z,2.63
2023-03-05T05:19:42.530Z,3.63
2023-03-05T05:22:14.853Z,2.63
2023-03-05T05:24:44.682Z,2.42
2023-03-05T05:27:14.373Z,2.00
2023-03-05T05:29:46.494Z,4.47
2023-03-05T05:32:16.250Z,4.28
2023-03-05T05:34:46.051Z,2.78
2023-03-05T05:37:18.380Z,2.42
2023-03-05T05:39:50.474Z,2.70
2023-03-05T05:42:20.213Z,2.90
2023-03-05T05:44:50.206Z,2.85
2023-03-05T05:47:20.652Z,1.88
2023-03-05T05:49:50.450Z,2.70
2023-03-05T05:52:22.743Z,5.50
2023-03-05T05:54:52.440Z,5.32
2023-03-05T05:57:22.073Z,5.35
2023-03-05T05:59:51.785Z,3.33
2023-03-05T06:02:21.531Z,3.35
2023-03-05T06:04:51.421Z,3.58
2023-03-05T06:07:23.708Z,2.90
2023-03-05T06:09:53.436Z,2.60
2023-03-05T06:12:23.131Z,3.35
2023-03-05T06:14:54.074Z,3.65
2023-03-05T06:17:30.278Z,3.47
2023-03-05T06:20:01.187Z,5.47
2023-03-05T06:22:33.473Z,3.22
2023-03-05T06:25:03.577Z,3.10
2023-03-05T06:27:33.247Z,3.25
2023-03-05T06:30:02.960Z,2.65
2023-03-05T06:32:32.801Z,3.03
2023-03-05T06:35:02.613Z,2.28
2023-03-05T06:37:34.947Z,2.90
2023-03-05T06:40:05.687Z,2.05
2023-03-05T06:42:36.491Z,2.90
2023-03-05T06:45:06.836Z,2.65
2023-03-05T06:47:36.516Z,2.45
2023-03-05T06:50:06.402Z,3.97
2023-03-05T06:52:40.587Z,4.28
2023-03-05T06:55:10.962Z,4.47
2023-03-05T06:57:40.657Z,3.88
2023-03-05T07:00:12.379Z,2.97
2023-03-05T07:02:42.145Z,2.80
2023-03-05T07:05:12.106Z,3.38
2023-03-05T07:07:44.416Z,4.25
2023-03-05T07:10:14.653Z,2.92
2023-03-05T07:12:44.325Z,6.45
2023-03-05T07:15:14.549Z,6.80
2023-03-05T07:17:44.278Z,5.35
2023-03-05T07:20:14.777Z,4.22
2023-03-05T07:22:47.086Z,3.05
2023-03-05T07:25:19.470Z,4.07
2023-03-05T07:27:49.152Z,2.92
2023-03-05T07:30:18.998Z,2.67
2023-03-05T07:32:48.687Z,3.05
2023-03-05T07:35:18.577Z,1.80
2023-03-05T07:37:50.873Z,3.28
2023-03-05T07:40:22.006Z,3.83
2023-03-05T07:42:51.737Z,3.15
2023-03-05T07:45:31.174Z,2.95
2023-03-05T07:48:00.841Z,2.65
2023-03-05T07:50:30.537Z,2.42
2023-03-05T07:53:03.265Z,2.78
2023-03-05T07:55:33.278Z,1.80
2023-03-05T07:58:02.987Z,2.13
2023-03-05T08:00:32.685Z,1.70
2023-03-05T08:03:02.330Z,1.85
2023-03-05T08:05:32.069Z,2.35
2023-03-05T08:08:04.502Z,1.73
2023-03-05T08:10:34.245Z,0.82
2023-03-05T08:13:03.993Z,1.50
2023-03-05T08:15:33.936Z,0.73
2023-03-05T08:18:03.721Z,3.30
2023-03-05T08:20:33.656Z,1.13
2023-03-05T08:23:06.181Z,1.27
2023-03-05T08:25:35.867Z,1.58
2023-03-05T08:28:05.540Z,2.65
2023-03-05T08:30:35.291Z,1.48
2023-03-05T08:33:05.059Z,2.25
2023-03-05T08:35:34.874Z,1.50
2023-03-05T08:38:07.376Z,2.28
2023-03-05T08:40:37.120Z,1.35
2023-03-05T08:43:07.567Z,1.75
2023-03-05T08:45:37.296Z,1.50
2023-03-05T08:48:07.322Z,1.67
2023-03-05T08:50:39.066Z,1.60
2023-03-05T08:53:11.425Z,1.23
2023-03-05T08:55:43.219Z,1.40
2023-03-05T08:58:14.894Z,2.08
2023-03-05T09:00:44.576Z,1.52
2023-03-05T09:03:14.380Z,1.77
2023-03-05T09:05:44.106Z,1.80
2023-03-05T09:08:16.426Z,1.42
2023-03-05T09:10:46.471Z,1.60
2023-03-05T09:13:16.148Z,1.23
2023-03-05T09:15:45.822Z,1.35
2023-03-05T09:18:15.545Z,2.00
2023-03-05T09:20:45.173Z,1.20
2023-03-05T09:23:17.494Z,2.17
2023-03-05T09:25:47.139Z,1.90
2023-03-05T09:28:16.842Z,1.00
2023-03-05T09:30:46.533Z,1.45
2023-03-05T09:33:16.216Z,2.40
2023-03-05T09:35:46.003Z,1.20
2023-03-05T09:38:19.353Z,1.63
2023-03-05T09:40:51.794Z,0.98
2023-03-05T09:43:26.436Z,1.52
2023-03-05T09:46:04.856Z,1.17
2023-03-05T09:48:44.450Z,1.50
2023-03-05T09:51:16.553Z,0.75
2023-03-05T09:53:50.667Z,1.98
2023-03-05T09:56:23.501Z,1.70
2023-03-05T09:58:56.212Z,1.58
2023-03-05T10:01:29.358Z,2.13
2023-03-05T10:04:00.186Z,1.55
2023-03-05T10:06:32.173Z,0.90
2023-03-05T10:09:06.844Z,0.60
2023-03-05T10:11:45.769Z,1.52
2023-03-05T10:14:17.049Z,0.95
2023-03-05T10:16:52.704Z,1.20
2023-03-05T10:19:42.421Z,0.38
2023-03-05T10:22:17.710Z,0.80
2023-03-05T10:24:56.964Z,1.02
2023-03-05T10:27:34.255Z,1.63
2023-03-05T10:30:07.792Z,2.30
2023-03-05T10:32:45.307Z,0.65
2023-03-05T10:35:32.085Z,3.15
2023-03-05T10:38:08.533Z,1.20
2023-03-05T10:40:43.645Z,4.43
2023-03-05T10:43:20.772Z,3.50
2023-03-05T10:45:50.987Z,5.63
2023-03-05T10:48:26.712Z,6.47
2023-03-05T10:50:59.590Z,5.43
2023-03-05T10:53:31.093Z,8.68
2023-03-05T10:56:07.054Z,4.38
2023-03-05T10:58:36.794Z,2.60
2023-03-05T11:01:08.081Z,3.08
2023-03-05T11:03:49.963Z,3.00
2023-03-05T11:06:29.794Z,1.98
2023-03-05T11:09:00.282Z,1.63
2023-03-05T11:11:33.488Z,3.03
2023-03-05T11:14:03.972Z,3.50
2023-03-05T11:16:34.849Z,3.08
2023-03-05T11:19:20.099Z,4.00
2023-03-05T11:21:50.422Z,5.50
2023-03-05T11:24:21.152Z,2.03
2023-03-05T11:26:55.266Z,2.10
2023-03-05T11:29:26.254Z,3.08
2023-03-05T11:31:56.415Z,2.88
2023-03-05T11:34:30.289Z,2.97
2023-03-05T11:37:04.719Z,3.58
2023-03-05T11:39:36.812Z,2.70
2023-03-05T11:42:09.974Z,3.20
2023-03-05T11:44:44.601Z,3.28
2023-03-05T11:47:19.896Z,3.03
2023-03-05T11:49:51.620Z,2.40
2023-03-05T11:52:24.647Z,2.15
2023-03-05T11:54:57.276Z,1.63
2023-03-05T11:57:30.033Z,3.30
2023-03-05T12:00:01.012Z,2.15
2023-03-05T12:02:31.160Z,1.20
2023-03-05T12:05:03.460Z,1.52
2023-03-05T12:07:37.692Z,3.28
2023-03-05T12:10:07.788Z,2.17
2023-03-05T12:12:44.655Z,2.38
2023-03-05T12:15:30.409Z,1.25
2023-03-05T12:18:06.812Z,2.00
2023-03-05T12:20:39.804Z,2.50
2023-03-05T12:23:13.953Z,2.05
2023-03-05T12:25:48.807Z,2.30
2023-03-05T12:28:41.684Z,2.63
2023-03-05T12:31:24.909Z,3.45
2023-03-05T12:33:54.604Z,2.00
2023-03-05T12:36:37.840Z,2.25
2023-03-05T12:39:22.446Z,1.45
2023-03-05T12:41:52.158Z,1.45
2023-03-05T12:44:25.129Z,2.85
2023-03-05T12:47:16.929Z,2.30
2023-03-05T12:49:48.474Z,2.42
2023-03-05T12:52:23.933Z,2.50
2023-03-05T12:55:08.361Z,1.60
2023-03-05T12:57:38.792Z,2.80
2023-03-05T13:00:13.858Z,2.35
2023-03-05T13:02:45.474Z,1.60
2023-03-05T13:05:21.045Z,1.80
2023-03-05T13:07:50.894Z,2.38
2023-03-05T13:10:27.745Z,1.52
2023-03-05T13:12:58.799Z,2.05
2023-03-05T13:15:31.750Z,1.23
2023-03-05T13:18:03.477Z,1.80
2023-03-05T13:20:37.804Z,2.40
2023-03-05T13:23:08.528Z,1.50
2023-03-05T13:25:38.256Z,2.55
2023-03-05T13:28:09.665Z,1.50
2023-03-05T13:30:41.955Z,4.28
2023-03-05T13:33:19.736Z,2.13
2023-03-05T13:35:51.029Z,3.22
2023-03-05T13:38:34.161Z,2.70
2023-03-05T13:41:04.788Z,4.45
2023-03-05T13:43:34.857Z,9.65
2023-03-05T13:46:07.358Z,3.83
2023-03-05T13:48:37.166Z,2.05
2023-03-05T13:51:09.595Z,1.95
2023-03-05T13:53:39.349Z,2.35
2023-03-05T13:56:10.318Z,2.92
2023-03-05T13:58:47.374Z,3.38
2023-03-05T14:01:23.644Z,3.28
2023-03-05T14:03:54.058Z,2.28
2023-03-05T14:06:24.615Z,2.83
2023-03-05T14:08:56.049Z,1.08
2023-03-05T14:11:26.052Z,1.60
2023-03-05T14:14:08.854Z,1.83
2023-03-05T14:16:41.298Z,2.30
2023-03-05T14:19:30.030Z,2.70
2023-03-05T14:21:59.838Z,4.05
2023-03-05T14:24:31.474Z,1.83
2023-03-05T14:27:03.438Z,2.17
2023-03-05T14:29:33.202Z,3.85
2023-03-05T14:32:07.443Z,2.88
2023-03-05T14:34:38.957Z,3.13
2023-03-05T14:37:10.555Z,4.65
2023-03-05T14:39:47.027Z,4.25
2023-03-05T14:42:27.005Z,3.67
2023-03-05T14:44:56.897Z,6.28
2023-03-05T14:47:29.571Z,7.30
2023-03-05T14:49:59.291Z,12.45
2023-03-05T14:52:29.099Z,12.73
2023-03-05T14:54:58.842Z,6.20
2023-03-05T14:57:29.815Z,8.45
2023-03-05T14:59:59.992Z,7.90
2023-03-05T15:02:32.355Z,8.35
2023-03-05T15:05:02.021Z,6.70
2023-03-05T15:07:35.921Z,5.15
2023-03-05T15:10:06.464Z,10.10
2023-03-05T15:12:39.051Z,10.13
2023-03-05T15:15:09.745Z,10.57
2023-03-05T15:17:43.458Z,5.55
2023-03-05T15:20:17.015Z,9.80
2023-03-05T15:22:46.823Z,10.55
2023-03-05T15:25:17.215Z,6.65
2023-03-05T15:27:47.693Z,6.88
2023-03-05T15:30:23.987Z,6.03
2023-03-05T15:32:56.896Z,3.88
2023-03-05T15:35:27.841Z,5.78
2023-03-05T15:37:58.078Z,1.55
2023-03-05T15:40:28.438Z,3.40
2023-03-05T15:42:58.575Z,3.50
2023-03-05T15:45:31.389Z,4.57
2023-03-05T15:48:03.806Z,4.00
2023-03-05T15:50:33.509Z,1.42
2023-03-05T15:53:03.288Z,1.77
2023-03-05T15:55:32.991Z,1.50
2023-03-05T16:00:52.807Z,1.35
2023-03-05T16:03:25.961Z,2.65
2023-03-05T16:05:55.812Z,1.92
2023-03-05T16:08:27.845Z,1.60
2023-03-05T16:10:57.583Z,3.10
2023-03-05T16:13:29.332Z,1.75
2023-03-05T16:15:59.537Z,2.20
2023-03-05T16:18:32.778Z,3.15
2023-03-05T16:21:02.665Z,2.58
2023-03-05T16:23:32.350Z,3.53
2023-03-05T16:26:02.138Z,3.50
2023-03-05T16:28:31.805Z,2.42
2023-03-05T16:31:02.024Z,3.35
2023-03-05T16:33:34.410Z,2.70
2023-03-05T16:36:24.044Z,3.20
2023-03-05T16:38:54.939Z,3.10
2023-03-05T16:41:25.252Z,2.80
2023-03-05T16:43:56.539Z,3.35
2023-03-05T16:46:26.443Z,3.05
2023-03-05T16:48:58.808Z,3.65
2023-03-05T16:51:29.709Z,3.30
2023-03-05T16:53:59.457Z,1.45
2023-03-05T16:56:29.254Z,3.17
2023-03-05T16:58:59.314Z,2.85
2023-03-05T17:01:30.365Z,3.33
2023-03-05T17:04:03.867Z,8.23
2023-03-05T17:06:34.957Z,13.05
2023-03-05T17:09:05.372Z,3.42
2023-03-05T17:11:35.232Z,3.22
2023-03-05T17:14:05.046Z,2.63
2023-03-05T17:16:34.792Z,2.97
2023-03-05T17:19:07.175Z,2.38
2023-03-05T17:21:36.845Z,2.75
2023-03-05T17:24:06.781Z,3.45
2023-03-05T17:26:36.581Z,3.00
2023-03-05T17:29:06.928Z,2.70
2023-03-05T17:31:36.845Z,4.25
2023-03-05T17:34:09.294Z,2.97
2023-03-05T17:36:39.393Z,3.13
2023-03-05T17:39:09.086Z,3.67
2023-03-05T17:41:38.811Z,3.15
2023-03-05T17:44:08.587Z,4.28
2023-03-05T17:46:38.282Z,4.40
2023-03-05T17:49:10.725Z,3.40
2023-03-05T17:51:40.796Z,2.80
2023-03-05T17:54:10.579Z,2.65
2023-03-05T17:56:40.310Z,2.70
2023-03-05T17:59:10.130Z,2.53
2023-03-05T18:01:39.874Z,2.38
2023-03-05T18:04:12.928Z,1.92
2023-03-05T18:06:42.652Z,2.35
2023-03-05T18:09:12.537Z,2.50
2023-03-05T18:11:42.232Z,2.25
2023-03-05T18:14:12.025Z,2.97
2023-03-05T18:16:41.826Z,2.60
2023-03-05T18:19:14.165Z,2.05
2023-03-05T18:21:44.291Z,3.83
2023-03-05T18:24:14.113Z,3.63
2023-03-05T18:26:43.832Z,4.05
2023-03-05T18:29:13.504Z,3.78
2023-03-05T18:31:43.255Z,3.10
2023-03-05T18:34:15.670Z,3.38
2023-03-05T18:36:45.361Z,2.80
2023-03-05T18:39:16.619Z,3.75
2023-03-05T18:41:46.437Z,5.20
2023-03-05T18:44:16.365Z,3.40
2023-03-05T18:46:46.069Z,2.70
2023-03-05T18:49:18.356Z,4.15
2023-03-05T18:51:48.237Z,3.03
2023-03-05T18:54:17.928Z,2.47
2023-03-05T18:56:47.628Z,3.33
2023-03-05T18:59:17.321Z,2.92
2023-03-05T19:01:47.110Z,2.60
2023-03-05T19:04:19.483Z,3.13
2023-03-05T19:06:49.196Z,3.22
2023-03-05T19:09:51.847Z,2.65
2023-03-05T19:12:22.248Z,3.47
2023-03-05T19:14:52.065Z,3.33
2023-03-05T19:17:21.804Z,2.92
2023-03-05T19:19:58.980Z,4.15
2023-03-05T19:22:29.677Z,3.95
2023-03-05T19:24:59.349Z,6.78
2023-03-05T19:27:29.325Z,6.60
2023-03-05T19:30:00.196Z,7.10
2023-03-05T19:32:30.043Z,8.50
2023-03-05T19:35:02.394Z,7.18
2023-03-05T19:37:33.399Z,6.13
2023-03-05T19:40:03.256Z,6.05
2023-03-05T19:42:32.924Z,7.57
2023-03-05T19:45:02.987Z,4.30
2023-03-05T19:47:32.722Z,4.53
2023-03-05T19:50:05.537Z,4.75
2023-03-05T19:52:35.220Z,4.32
2023-03-05T19:55:04.890Z,4.53
2023-03-05T19:57:35.094Z,4.85
2023-03-05T20:00:04.842Z,2.83
2023-03-05T20:02:34.756Z,3.50
2023-03-05T20:05:07.303Z,5.18
2023-03-05T20:07:36.975Z,5.30
2023-03-05T20:10:06.951Z,5.18
2023-03-05T20:12:36.784Z,5.63
2023-03-05T20:15:06.664Z,2.78
2023-03-05T20:17:36.453Z,4.40
2023-03-05T20:20:09.577Z,4.88
2023-03-05T20:22:39.238Z,4.88
2023-03-05T20:25:09.817Z,4.63
2023-03-05T20:27:39.479Z,5.57
2023-03-05T20:30:10.605Z,6.40
2023-03-05T20:32:41.030Z,8.35
2023-03-05T20:35:15.571Z,9.60
2023-03-05T20:38:15.161Z,8.65
2023-03-05T20:40:44.864Z,8.75
2023-03-05T20:43:14.608Z,7.50
2023-03-05T20:45:44.436Z,7.50
2023-03-05T20:48:14.171Z,9.35
2023-03-05T20:50:46.931Z,6.32
2023-03-05T20:53:16.892Z,7.85
2023-03-05T20:55:46.693Z,6.13
2023-03-05T20:58:16.469Z,6.28
2023-03-05T21:00:46.206Z,5.88
2023-03-05T21:03:15.910Z,5.60
2023-03-05T21:05:48.177Z,6.05
2023-03-05T21:08:17.879Z,7.10
2023-03-05T21:10:47.556Z,5.10
2023-03-05T21:13:17.331Z,5.85
2023-03-05T21:15:47.053Z,6.13
2023-03-05T21:18:16.734Z,5.13
2023-03-05T21:20:49.062Z,6.47
2023-03-05T21:23:18.742Z,14.07
2023-03-05T21:25:48.472Z,6.75
2023-03-05T21:28:19.215Z,18.95
2023-03-05T21:30:49.733Z,8.35
2023-03-05T21:33:21.599Z,8.38
2023-03-05T21:35:54.522Z,8.52
2023-03-05T21:38:25.480Z,10.85
2023-03-05T21:40:55.918Z,6.82
2023-03-05T21:43:26.911Z,9.93
2023-03-05T21:45:57.825Z,11.32
2023-03-05T21:48:27.931Z,11.75
2023-03-05T21:51:00.359Z,14.38
2023-03-05T21:53:30.045Z,11.60
2023-03-05T21:56:26.831Z,7.53
2023-03-05T21:58:56.824Z,7.95
2023-03-05T22:01:26.621Z,12.95
2023-03-05T22:03:56.559Z,17.02
2023-03-05T22:06:28.856Z,11.73
2023-03-05T22:08:59.115Z,12.30
2023-03-05T22:11:28.797Z,14.27
2023-03-05T22:13:58.466Z,17.70
2023-03-05T22:16:29.331Z,15.82
2023-03-05T22:18:59.647Z,15.25
2023-03-05T22:21:31.948Z,11.52
2023-03-05T22:24:02.427Z,11.02
2023-03-05T22:26:36.726Z,8.10
2023-03-05T22:29:08.528Z,7.47
2023-03-05T22:31:38.877Z,16.33
2023-03-05T22:34:08.555Z,13.90
2023-03-05T22:36:41.133Z,12.07
2023-03-05T22:39:10.871Z,9.15
2023-03-05T22:41:43.139Z,14.32
2023-03-05T22:44:12.820Z,11.30
2023-03-05T22:46:42.485Z,11.73
2023-03-05T22:49:12.213Z,7.22
2023-03-05T22:51:44.492Z,12.35
2023-03-05T22:54:14.286Z,7.43
2023-03-05T22:56:43.931Z,9.55
2023-03-05T22:59:13.614Z,5.88
2023-03-05T23:01:43.581Z,2.75
2023-03-05T23:04:40.541Z,5.07
2023-03-05T23:07:15.650Z,5.25
2023-03-05T23:09:45.378Z,5.22
2023-03-05T23:12:15.272Z,3.28
2023-03-05T23:14:44.945Z,7.95
2023-03-05T23:17:14.717Z,4.70
2023-03-05T23:19:44.547Z,5.88
2023-03-05T23:22:16.984Z,5.60
2023-03-05T23:24:46.666Z,5.78
2023-03-05T23:27:17.959Z,5.78
2023-03-05T23:30:15.927Z,6.68
2023-03-05T23:32:47.112Z,4.10
2023-03-05T23:35:17.709Z,5.05
2023-03-05T23:37:50.095Z,4.80
2023-03-05T23:40:21.348Z,5.18
2023-03-05T23:42:51.442Z,4.68
2023-03-05T23:45:21.864Z,3.97
2023-03-05T23:47:51.723Z,4.50
2023-03-05T23:50:22.551Z,3.92
2023-03-05T23:52:55.240Z,4.20
2023-03-05T23:55:26.177Z,4.40
2023-03-05T23:57:56.233Z,3.63
